sensor_id;sensor_type;location;lat;lon;timestamp;pressure;altitude;pressure_sealevel;temperature;humidity
72794;BME280;61018;26.334;50.194;2022-07-11T00:01:18;99570.37;;;33.48;41.63
72794;BME280;61018;26.334;50.194;2022-07-11T00:03:49;99571.51;;;34.49;40.06
72794;BME280;61018;26.334;50.194;2022-07-11T00:06:09;99575.62;;;34.34;40.79
72794;BME280;61018;26.334;50.194;2022-07-11T00:08:35;99582.75;;;33.80;41.52
72794;BME280;61018;26.334;50.194;2022-07-11T00:11:01;99587.44;;;34.25;41.45
72794;BME280;61018;26.334;50.194;2022-07-11T00:13:26;99595.77;;;33.47;42.19
72794;BME280;61018;26.334;50.194;2022-07-11T00:15:52;99599.63;;;34.46;41.03
72794;BME280;61018;26.334;50.194;2022-07-11T00:18:17;99604.96;;;34.18;41.19
72794;BME280;61018;26.334;50.194;2022-07-11T00:20:42;99606.15;;;34.23;41.92
72794;BME280;61018;26.334;50.194;2022-07-11T00:23:08;99601.93;;;33.86;41.52
72794;BME280;61018;26.334;50.194;2022-07-11T00:25:33;99598.93;;;33.93;41.46
72794;BME280;61018;26.334;50.194;2022-07-11T00:28:04;99598.72;;;34.04;41.24
72794;BME280;61018;26.334;50.194;2022-07-11T00:30:24;99602.52;;;34.36;41.97
72794;BME280;61018;26.334;50.194;2022-07-11T00:32:50;99607.81;;;34.16;42.26
72794;BME280;61018;26.334;50.194;2022-07-11T00:35:15;99615.28;;;34.22;41.59
72794;BME280;61018;26.334;50.194;2022-07-11T00:37:41;99620.00;;;33.65;43.16
72794;BME280;61018;26.334;50.194;2022-07-11T00:40:07;99618.05;;;34.59;41.44
72794;BME280;61018;26.334;50.194;2022-07-11T00:42:31;99619.91;;;34.27;42.10
72794;BME280;61018;26.334;50.194;2022-07-11T00:44:57;99626.23;;;33.43;43.73
72794;BME280;61018;26.334;50.194;2022-07-11T00:49:48;99635.71;;;33.86;42.25
72794;BME280;61018;26.334;50.194;2022-07-11T00:52:13;99635.33;;;33.97;43.18
72794;BME280;61018;26.334;50.194;2022-07-11T00:54:39;99638.54;;;33.80;43.11
72794;BME280;61018;26.334;50.194;2022-07-11T00:57:05;99642.60;;;34.12;42.25
72794;BME280;61018;26.334;50.194;2022-07-11T00:59:35;99648.38;;;33.57;42.83
72794;BME280;61018;26.334;50.194;2022-07-11T01:01:55;99652.35;;;33.69;43.11
72794;BME280;61018;26.334;50.194;2022-07-11T01:04:21;99653.51;;;33.35;40.58
72794;BME280;61018;26.334;50.194;2022-07-11T01:06:46;99650.34;;;34.02;42.73
72794;BME280;61018;26.334;50.194;2022-07-11T01:09:11;99651.20;;;34.04;42.51
72794;BME280;61018;26.334;50.194;2022-07-11T01:11:38;99656.52;;;33.42;43.71
72794;BME280;61018;26.334;50.194;2022-07-11T01:14:03;99661.29;;;33.38;43.77
72794;BME280;61018;26.334;50.194;2022-07-11T01:16:28;99664.60;;;33.18;42.94
72794;BME280;61018;26.334;50.194;2022-07-11T01:18:55;99671.59;;;33.43;42.90
72794;BME280;61018;26.334;50.194;2022-07-11T01:23:46;99678.62;;;33.45;43.15
72794;BME280;61018;26.334;50.194;2022-07-11T01:26:12;99677.46;;;33.49;42.77
72794;BME280;61018;26.334;50.194;2022-07-11T01:28:36;99679.02;;;33.36;42.67
72794;BME280;61018;26.334;50.194;2022-07-11T01:31:01;99682.21;;;33.93;41.09
72794;BME280;61018;26.334;50.194;2022-07-11T01:33:27;99684.93;;;33.82;42.57
72794;BME280;61018;26.334;50.194;2022-07-11T01:38:18;99692.95;;;33.02;43.66
72794;BME280;61018;26.334;50.194;2022-07-11T01:43:09;99702.68;;;33.14;43.40
72794;BME280;61018;26.334;50.194;2022-07-11T01:45:34;99708.08;;;33.72;43.03
72794;BME280;61018;26.334;50.194;2022-07-11T01:48:00;99708.56;;;33.74;41.50
72794;BME280;61018;26.334;50.194;2022-07-11T01:50:25;99703.17;;;33.49;41.67
72794;BME280;61018;26.334;50.194;2022-07-11T01:52:51;99702.42;;;33.80;42.76
72794;BME280;61018;26.334;50.194;2022-07-11T01:55:16;99705.04;;;33.04;43.20
72794;BME280;61018;26.334;50.194;2022-07-11T01:57:42;99707.72;;;33.40;43.44
72794;BME280;61018;26.334;50.194;2022-07-11T02:00:08;99710.44;;;33.45;42.85
72794;BME280;61018;26.334;50.194;2022-07-11T02:02:32;99711.04;;;33.13;43.88
72794;BME280;61018;26.334;50.194;2022-07-11T02:04:58;99715.79;;;33.42;43.85
72794;BME280;61018;26.334;50.194;2022-07-11T02:07:23;99715.95;;;33.25;44.67
72794;BME280;61018;26.334;50.194;2022-07-11T02:09:49;99720.67;;;33.35;44.06
72794;BME280;61018;26.334;50.194;2022-07-11T02:12:14;99722.43;;;33.61;44.10
72794;BME280;61018;26.334;50.194;2022-07-11T02:19:32;99721.05;;;32.87;44.59
72794;BME280;61018;26.334;50.194;2022-07-11T02:21:56;99721.78;;;33.61;43.52
72794;BME280;61018;26.334;50.194;2022-07-11T02:24:22;99724.54;;;33.56;43.94
72794;BME280;61018;26.334;50.194;2022-07-11T02:26:47;99729.44;;;33.55;43.69
72794;BME280;61018;26.334;50.194;2022-07-11T02:29:13;99730.99;;;33.65;44.01
72794;BME280;61018;26.334;50.194;2022-07-11T02:31:38;99728.93;;;33.17;44.63
72794;BME280;61018;26.334;50.194;2022-07-11T02:34:03;99730.67;;;33.44;43.05
72794;BME280;61018;26.334;50.194;2022-07-11T02:36:29;99738.42;;;34.55;42.46
72794;BME280;61018;26.334;50.194;2022-07-11T02:38:55;99743.46;;;34.51;39.52
72794;BME280;61018;26.334;50.194;2022-07-11T02:41:20;99746.17;;;32.99;43.54
72794;BME280;61018;26.334;50.194;2022-07-11T02:43:45;99746.51;;;34.13;41.78
72794;BME280;61018;26.334;50.194;2022-07-11T02:46:12;99743.37;;;34.18;40.81
72794;BME280;61018;26.334;50.194;2022-07-11T02:51:03;99751.41;;;34.16;40.64
72794;BME280;61018;26.334;50.194;2022-07-11T02:53:27;99756.05;;;34.30;41.04
72794;BME280;61018;26.334;50.194;2022-07-11T02:55:53;99760.27;;;34.58;39.97
72794;BME280;61018;26.334;50.194;2022-07-11T02:58:18;99767.30;;;34.43;40.97
72794;BME280;61018;26.334;50.194;2022-07-11T03:00:44;99767.09;;;34.61;39.23
72794;BME280;61018;26.334;50.194;2022-07-11T03:03:09;99765.76;;;33.87;42.43
72794;BME280;61018;26.334;50.194;2022-07-11T03:05:35;99763.84;;;33.86;40.56
72794;BME280;61018;26.334;50.194;2022-07-11T03:08:00;99764.91;;;33.95;38.94
72794;BME280;61018;26.334;50.194;2022-07-11T03:10:26;99767.61;;;33.74;39.01
72794;BME280;61018;26.334;50.194;2022-07-11T03:12:52;99770.22;;;34.56;37.82
72794;BME280;61018;26.334;50.194;2022-07-11T03:15:17;99771.60;;;34.87;37.32
72794;BME280;61018;26.334;50.194;2022-07-11T03:17:43;99777.13;;;34.87;38.33
72794;BME280;61018;26.334;50.194;2022-07-11T03:22:34;99781.72;;;34.70;38.06
72794;BME280;61018;26.334;50.194;2022-07-11T03:24:59;99785.72;;;34.33;37.49
72794;BME280;61018;26.334;50.194;2022-07-11T03:27:25;99791.99;;;34.96;38.05
72794;BME280;61018;26.334;50.194;2022-07-11T03:29:51;99797.86;;;34.05;40.23
72794;BME280;61018;26.334;50.194;2022-07-11T03:32:15;99803.66;;;34.33;38.28
72794;BME280;61018;26.334;50.194;2022-07-11T03:34:41;99809.02;;;34.38;39.21
72794;BME280;61018;26.334;50.194;2022-07-11T03:37:06;99812.25;;;34.87;35.33
72794;BME280;61018;26.334;50.194;2022-07-11T03:41:57;99822.19;;;34.27;40.05
72794;BME280;61018;26.334;50.194;2022-07-11T03:44:23;99827.78;;;34.90;38.53
72794;BME280;61018;26.334;50.194;2022-07-11T03:46:48;99832.67;;;34.75;39.00
72794;BME280;61018;26.334;50.194;2022-07-11T03:49:14;99835.37;;;33.73;40.84
72794;BME280;61018;26.334;50.194;2022-07-11T03:51:39;99832.86;;;34.63;40.24
72794;BME280;61018;26.334;50.194;2022-07-11T03:54:05;99832.85;;;34.08;39.79
72794;BME280;61018;26.334;50.194;2022-07-11T03:56:30;99834.69;;;34.27;39.23
72794;BME280;61018;26.334;50.194;2022-07-11T03:58:56;99834.66;;;34.31;39.35
72794;BME280;61018;26.334;50.194;2022-07-11T04:01:21;99842.21;;;34.33;38.80
72794;BME280;61018;26.334;50.194;2022-07-11T04:03:56;99847.30;;;35.04;36.35
72794;BME280;61018;26.334;50.194;2022-07-11T04:06:12;99845.47;;;34.31;37.82
72794;BME280;61018;26.334;50.194;2022-07-11T04:08:38;99845.47;;;34.41;37.99
72794;BME280;61018;26.334;50.194;2022-07-11T04:11:04;99848.74;;;34.77;38.23
72794;BME280;61018;26.334;50.194;2022-07-11T04:13:29;99851.00;;;35.15;38.48
72794;BME280;61018;26.334;50.194;2022-07-11T04:15:54;99850.26;;;34.18;39.38
72794;BME280;61018;26.334;50.194;2022-07-11T04:18:19;99849.92;;;33.66;42.33
72794;BME280;61018;26.334;50.194;2022-07-11T04:20:44;99853.52;;;34.57;40.24
72794;BME280;61018;26.334;50.194;2022-07-11T04:23:10;99856.94;;;35.81;39.05
72794;BME280;61018;26.334;50.194;2022-07-11T04:25:36;99859.78;;;34.73;39.68
72794;BME280;61018;26.334;50.194;2022-07-11T04:28:01;99859.21;;;35.10;39.61
72794;BME280;61018;26.334;50.194;2022-07-11T04:30:27;99862.14;;;35.35;38.37
72794;BME280;61018;26.334;50.194;2022-07-11T04:32:52;99863.88;;;35.15;39.90
72794;BME280;61018;26.334;50.194;2022-07-11T04:35:17;99865.39;;;34.92;38.71
72794;BME280;61018;26.334;50.194;2022-07-11T04:37:44;99866.50;;;35.49;36.29
72794;BME280;61018;26.334;50.194;2022-07-11T04:40:09;99868.86;;;35.95;38.74
72794;BME280;61018;26.334;50.194;2022-07-11T04:42:34;99870.55;;;35.70;37.44
72794;BME280;61018;26.334;50.194;2022-07-11T04:44:59;99873.95;;;35.11;40.25
72794;BME280;61018;26.334;50.194;2022-07-11T04:47:25;99874.11;;;34.23;42.10
72794;BME280;61018;26.334;50.194;2022-07-11T04:49:51;99874.47;;;35.18;39.74
72794;BME280;61018;26.334;50.194;2022-07-11T04:52:16;99874.14;;;34.81;40.03
72794;BME280;61018;26.334;50.194;2022-07-11T04:54:42;99875.10;;;33.83;42.32
72794;BME280;61018;26.334;50.194;2022-07-11T04:57:07;99876.88;;;35.64;39.50
72794;BME280;61018;26.334;50.194;2022-07-11T04:59:32;99878.54;;;35.29;38.49
72794;BME280;61018;26.334;50.194;2022-07-11T05:01:59;99879.02;;;34.99;39.59
72794;BME280;61018;26.334;50.194;2022-07-11T05:04:24;99879.85;;;36.99;37.47
72794;BME280;61018;26.334;50.194;2022-07-11T05:06:49;99876.22;;;36.94;37.55
72794;BME280;61018;26.334;50.194;2022-07-11T05:09:14;99873.71;;;36.66;37.33
72794;BME280;61018;26.334;50.194;2022-07-11T05:11:39;99879.02;;;36.31;38.08
72794;BME280;61018;26.334;50.194;2022-07-11T05:14:04;99878.00;;;36.60;37.10
72794;BME280;61018;26.334;50.194;2022-07-11T05:16:30;99874.97;;;36.48;37.14
72794;BME280;61018;26.334;50.194;2022-07-11T05:18:55;99873.75;;;37.28;35.54
72794;BME280;61018;26.334;50.194;2022-07-11T05:21:21;99876.54;;;36.55;37.04
72794;BME280;61018;26.334;50.194;2022-07-11T05:23:47;99873.45;;;35.45;38.21
72794;BME280;61018;26.334;50.194;2022-07-11T05:26:14;99869.18;;;36.41;37.22
72794;BME280;61018;26.334;50.194;2022-07-11T05:28:39;99869.36;;;37.19;36.31
72794;BME280;61018;26.334;50.194;2022-07-11T05:31:03;99869.27;;;37.24;35.51
72794;BME280;61018;26.334;50.194;2022-07-11T05:33:28;99870.83;;;37.89;33.66
72794;BME280;61018;26.334;50.194;2022-07-11T05:35:53;99874.77;;;38.22;31.62
72794;BME280;61018;26.334;50.194;2022-07-11T05:38:18;99878.70;;;37.51;32.51
72794;BME280;61018;26.334;50.194;2022-07-11T05:40:43;99877.72;;;38.55;31.56
72794;BME280;61018;26.334;50.194;2022-07-11T05:45:35;99874.63;;;38.20;32.78
72794;BME280;61018;26.334;50.194;2022-07-11T05:47:59;99871.54;;;36.82;34.52
72794;BME280;61018;26.334;50.194;2022-07-11T05:50:25;99871.69;;;37.61;33.32
72794;BME280;61018;26.334;50.194;2022-07-11T05:52:51;99873.24;;;38.28;32.36
72794;BME280;61018;26.334;50.194;2022-07-11T05:55:16;99871.16;;;36.64;34.43
72794;BME280;61018;26.334;50.194;2022-07-11T05:57:42;99872.19;;;36.27;34.36
72794;BME280;61018;26.334;50.194;2022-07-11T06:00:09;99873.65;;;37.57;33.46
72794;BME280;61018;26.334;50.194;2022-07-11T06:02:33;99876.06;;;37.71;33.77
72794;BME280;61018;26.334;50.194;2022-07-11T06:04:58;99879.90;;;38.04;32.43
72794;BME280;61018;26.334;50.194;2022-07-11T06:07:24;99878.96;;;37.78;33.18
72794;BME280;61018;26.334;50.194;2022-07-11T06:09:49;99877.67;;;36.65;35.41
72794;BME280;61018;26.334;50.194;2022-07-11T06:12:15;99876.13;;;37.64;35.21
72794;BME280;61018;26.334;50.194;2022-07-11T06:14:40;99881.95;;;37.81;34.73
72794;BME280;61018;26.334;50.194;2022-07-11T06:17:06;99887.19;;;38.07;33.04
72794;BME280;61018;26.334;50.194;2022-07-11T06:19:31;99894.11;;;38.38;32.26
72794;BME280;61018;26.334;50.194;2022-07-11T06:21:56;99891.13;;;38.48;32.74
72794;BME280;61018;26.334;50.194;2022-07-11T06:24:22;99891.58;;;37.88;32.41
72794;BME280;61018;26.334;50.194;2022-07-11T06:26:48;99890.26;;;36.20;34.26
72794;BME280;61018;26.334;50.194;2022-07-11T06:29:12;99893.31;;;36.62;33.30
72794;BME280;61018;26.334;50.194;2022-07-11T06:31:38;99894.24;;;36.31;31.76
72794;BME280;61018;26.334;50.194;2022-07-11T06:34:04;99890.12;;;37.68;30.17
72794;BME280;61018;26.334;50.194;2022-07-11T06:36:29;99888.26;;;37.88;29.86
72794;BME280;61018;26.334;50.194;2022-07-11T06:38:55;99891.48;;;38.32;26.62
72794;BME280;61018;26.334;50.194;2022-07-11T06:41:19;99891.80;;;38.75;25.48
72794;BME280;61018;26.334;50.194;2022-07-11T06:43:46;99891.07;;;38.87;26.04
72794;BME280;61018;26.334;50.194;2022-07-11T06:46:10;99894.34;;;38.72;26.52
72794;BME280;61018;26.334;50.194;2022-07-11T06:48:36;99890.01;;;38.00;26.92
72794;BME280;61018;26.334;50.194;2022-07-11T06:51:02;99884.50;;;37.65;24.85
72794;BME280;61018;26.334;50.194;2022-07-11T06:53:27;99885.77;;;38.46;23.61
72794;BME280;61018;26.334;50.194;2022-07-11T06:55:53;99879.61;;;37.12;25.66
72794;BME280;61018;26.334;50.194;2022-07-11T07:00:55;99878.21;;;36.55;28.39
72794;BME280;61018;26.334;50.194;2022-07-11T07:03:11;99881.00;;;36.61;28.85
72794;BME280;61018;26.334;50.194;2022-07-11T07:05:37;99877.08;;;35.76;30.18
72794;BME280;61018;26.334;50.194;2022-07-11T07:08:03;99878.01;;;37.24;28.66
72794;BME280;61018;26.334;50.194;2022-07-11T07:10:27;99877.47;;;36.69;29.74
72794;BME280;61018;26.334;50.194;2022-07-11T07:12:52;99882.44;;;35.12;31.51
72794;BME280;61018;26.334;50.194;2022-07-11T07:15:17;99881.90;;;36.34;30.66
72794;BME280;61018;26.334;50.194;2022-07-11T07:17:43;99882.52;;;36.82;30.47
72794;BME280;61018;26.334;50.194;2022-07-11T07:20:10;99883.06;;;37.73;29.34
72794;BME280;61018;26.334;50.194;2022-07-11T07:24:59;99882.18;;;35.92;31.33
72794;BME280;61018;26.334;50.194;2022-07-11T07:27:25;99882.55;;;36.91;30.17
72794;BME280;61018;26.334;50.194;2022-07-11T07:29:51;99888.17;;;38.86;28.44
72794;BME280;61018;26.334;50.194;2022-07-11T07:32:16;99887.42;;;37.87;28.50
72794;BME280;61018;26.334;50.194;2022-07-11T07:34:42;99884.66;;;38.44;29.18
72794;BME280;61018;26.334;50.194;2022-07-11T07:39:34;99884.50;;;38.83;29.47
72794;BME280;61018;26.334;50.194;2022-07-11T07:42:00;99885.46;;;38.88;29.32
72794;BME280;61018;26.334;50.194;2022-07-11T07:44:25;99879.33;;;37.28;31.93
72794;BME280;61018;26.334;50.194;2022-07-11T07:46:50;99877.35;;;37.97;31.43
72794;BME280;61018;26.334;50.194;2022-07-11T07:49:17;99873.74;;;37.76;31.74
72794;BME280;61018;26.334;50.194;2022-07-11T07:51:41;99872.22;;;37.92;31.51
72794;BME280;61018;26.334;50.194;2022-07-11T07:54:07;99873.06;;;38.08;31.73
72794;BME280;61018;26.334;50.194;2022-07-11T07:56:32;99874.99;;;37.88;31.91
72794;BME280;61018;26.334;50.194;2022-07-11T07:58:57;99876.33;;;37.53;32.77
72794;BME280;61018;26.334;50.194;2022-07-11T08:01:23;99871.84;;;37.51;32.74
72794;BME280;61018;26.334;50.194;2022-07-11T08:03:49;99865.99;;;37.66;32.36
72794;BME280;61018;26.334;50.194;2022-07-11T08:06:14;99870.18;;;38.34;31.53
72794;BME280;61018;26.334;50.194;2022-07-11T08:08:39;99867.60;;;38.11;31.75
72794;BME280;61018;26.334;50.194;2022-07-11T08:11:05;99867.33;;;38.28;31.44
72794;BME280;61018;26.334;50.194;2022-07-11T08:13:30;99862.89;;;38.19;31.81
72794;BME280;61018;26.334;50.194;2022-07-11T08:15:56;99860.47;;;37.06;33.17
72794;BME280;61018;26.334;50.194;2022-07-11T08:20:46;99856.91;;;37.15;33.53
72794;BME280;61018;26.334;50.194;2022-07-11T08:23:12;99849.21;;;37.10;33.09
72794;BME280;61018;26.334;50.194;2022-07-11T08:25:37;99848.58;;;37.57;32.90
72794;BME280;61018;26.334;50.194;2022-07-11T08:28:02;99846.89;;;37.85;32.40
72794;BME280;61018;26.334;50.194;2022-07-11T08:30:27;99849.32;;;37.82;33.18
72794;BME280;61018;26.334;50.194;2022-07-11T08:32:52;99852.81;;;37.12;33.97
72794;BME280;61018;26.334;50.194;2022-07-11T08:35:20;99852.46;;;37.39;33.12
72794;BME280;61018;26.334;50.194;2022-07-11T08:37:44;99852.79;;;38.02;32.75
72794;BME280;61018;26.334;50.194;2022-07-11T08:40:10;99854.00;;;38.21;32.03
72794;BME280;61018;26.334;50.194;2022-07-11T08:42:40;99850.86;;;38.00;32.00
72794;BME280;61018;26.334;50.194;2022-07-11T08:45:00;99850.07;;;38.61;31.77
72794;BME280;61018;26.334;50.194;2022-07-11T08:47:25;99849.41;;;39.54;30.44
72794;BME280;61018;26.334;50.194;2022-07-11T08:49:52;99855.24;;;38.46;31.51
72794;BME280;61018;26.334;50.194;2022-07-11T08:52:17;99854.17;;;39.33;30.42
72794;BME280;61018;26.334;50.194;2022-07-11T08:54:42;99844.00;;;39.57;30.43
72794;BME280;61018;26.334;50.194;2022-07-11T08:57:07;99834.88;;;39.59;29.43
72794;BME280;61018;26.334;50.194;2022-07-11T08:59:34;99830.36;;;39.63;29.48
72794;BME280;61018;26.334;50.194;2022-07-11T09:04:24;99832.40;;;38.04;30.39
72794;BME280;61018;26.334;50.194;2022-07-11T09:06:50;99825.82;;;39.57;28.87
72794;BME280;61018;26.334;50.194;2022-07-11T09:11:51;99817.81;;;39.37;28.94
72794;BME280;61018;26.334;50.194;2022-07-11T09:14:12;99815.60;;;39.21;29.70
72794;BME280;61018;26.334;50.194;2022-07-11T09:16:31;99813.07;;;39.47;29.52
72794;BME280;61018;26.334;50.194;2022-07-11T09:18:56;99816.25;;;40.00;29.07
72794;BME280;61018;26.334;50.194;2022-07-11T09:21:23;99813.83;;;39.37;29.93
72794;BME280;61018;26.334;50.194;2022-07-11T09:23:49;99816.08;;;39.58;30.08
72794;BME280;61018;26.334;50.194;2022-07-11T09:28:40;99812.85;;;39.64;30.13
72794;BME280;61018;26.334;50.194;2022-07-11T09:31:15;99810.86;;;39.76;30.09
72794;BME280;61018;26.334;50.194;2022-07-11T09:33:30;99805.31;;;39.40;31.26
72794;BME280;61018;26.334;50.194;2022-07-11T09:35:55;99811.35;;;40.15;29.98
72794;BME280;61018;26.334;50.194;2022-07-11T09:40:48;99805.13;;;38.49;31.97
72794;BME280;61018;26.334;50.194;2022-07-11T09:43:13;99801.17;;;39.49;31.09
72794;BME280;61018;26.334;50.194;2022-07-11T09:45:40;99798.00;;;39.29;29.97
72794;BME280;61018;26.334;50.194;2022-07-11T09:48:08;99799.87;;;39.46;31.57
72794;BME280;61018;26.334;50.194;2022-07-11T09:50:30;99795.04;;;39.31;31.40
72794;BME280;61018;26.334;50.194;2022-07-11T09:53:02;99795.58;;;39.79;30.59
72794;BME280;61018;26.334;50.194;2022-07-11T09:55:20;99792.97;;;39.31;31.20
72794;BME280;61018;26.334;50.194;2022-07-11T09:57:45;99792.56;;;38.95;31.92
72794;BME280;61018;26.334;50.194;2022-07-11T10:00:17;99790.54;;;38.97;30.31
72794;BME280;61018;26.334;50.194;2022-07-11T10:02:42;99786.36;;;39.15;31.01
72794;BME280;61018;26.334;50.194;2022-07-11T10:05:18;99784.17;;;39.38;30.34
72794;BME280;61018;26.334;50.194;2022-07-11T10:07:29;99783.95;;;39.47;30.57
72794;BME280;61018;26.334;50.194;2022-07-11T10:09:54;99781.38;;;39.44;30.75
72794;BME280;61018;26.334;50.194;2022-07-11T10:12:20;99775.83;;;39.82;32.17
72794;BME280;61018;26.334;50.194;2022-07-11T10:14:46;99781.27;;;38.73;33.27
72794;BME280;61018;26.334;50.194;2022-07-11T10:17:16;99776.96;;;39.06;32.24
72794;BME280;61018;26.334;50.194;2022-07-11T10:19:42;99775.56;;;39.01;32.11
72794;BME280;61018;26.334;50.194;2022-07-11T10:22:11;99773.67;;;38.41;31.98
72794;BME280;61018;26.334;50.194;2022-07-11T10:24:34;99770.35;;;39.04;32.41
72794;BME280;61018;26.334;50.194;2022-07-11T10:29:29;99760.97;;;39.72;31.53
72794;BME280;61018;26.334;50.194;2022-07-11T10:31:41;99762.30;;;39.29;32.84
72794;BME280;61018;26.334;50.194;2022-07-11T10:34:08;99762.41;;;39.57;31.66
72794;BME280;61018;26.334;50.194;2022-07-11T10:36:39;99759.11;;;39.40;31.36
72794;BME280;61018;26.334;50.194;2022-07-11T10:39:15;99758.95;;;39.39;31.95
72794;BME280;61018;26.334;50.194;2022-07-11T10:41:25;99755.92;;;39.04;31.85
72794;BME280;61018;26.334;50.194;2022-07-11T10:43:50;99756.99;;;39.82;32.37
72794;BME280;61018;26.334;50.194;2022-07-11T10:46:19;99756.44;;;38.48;32.72
72794;BME280;61018;26.334;50.194;2022-07-11T10:53:39;99756.36;;;37.37;34.04
72794;BME280;61018;26.334;50.194;2022-07-11T10:58:26;99756.15;;;39.75;31.71
72794;BME280;61018;26.334;50.194;2022-07-11T11:00:49;99758.16;;;39.60;31.17
72794;BME280;61018;26.334;50.194;2022-07-11T11:03:13;99754.34;;;39.74;31.64
72794;BME280;61018;26.334;50.194;2022-07-11T11:05:46;99751.48;;;39.48;32.69
72794;BME280;61018;26.334;50.194;2022-07-11T11:13:12;99749.02;;;38.33;33.51
72794;BME280;61018;26.334;50.194;2022-07-11T11:17:46;99745.34;;;39.04;33.09
72794;BME280;61018;26.334;50.194;2022-07-11T11:22:36;99746.27;;;39.38;32.99
72794;BME280;61018;26.334;50.194;2022-07-11T11:25:02;99747.94;;;39.50;32.92
72794;BME280;61018;26.334;50.194;2022-07-11T11:27:27;99748.22;;;39.05;33.69
72794;BME280;61018;26.334;50.194;2022-07-11T11:29:54;99742.31;;;38.80;31.99
72794;BME280;61018;26.334;50.194;2022-07-11T11:32:18;99742.02;;;38.94;33.50
72794;BME280;61018;26.334;50.194;2022-07-11T11:34:44;99742.09;;;39.35;32.90
72794;BME280;61018;26.334;50.194;2022-07-11T11:37:08;99745.18;;;38.51;33.76
72794;BME280;61018;26.334;50.194;2022-07-11T11:39:35;99741.67;;;38.78;34.10
72794;BME280;61018;26.334;50.194;2022-07-11T11:42:03;99743.45;;;39.88;33.04
72794;BME280;61018;26.334;50.194;2022-07-11T11:44:24;99741.80;;;39.55;32.74
72794;BME280;61018;26.334;50.194;2022-07-11T11:46:50;99738.92;;;39.06;33.94
72794;BME280;61018;26.334;50.194;2022-07-11T11:49:15;99737.12;;;39.25;34.14
72794;BME280;61018;26.334;50.194;2022-07-11T11:51:40;99733.12;;;39.33;33.63
72794;BME280;61018;26.334;50.194;2022-07-11T11:54:07;99732.52;;;38.98;33.81
72794;BME280;61018;26.334;50.194;2022-07-11T11:56:34;99729.97;;;38.69;33.47
72794;BME280;61018;26.334;50.194;2022-07-11T11:59:00;99728.14;;;39.07;33.79
72794;BME280;61018;26.334;50.194;2022-07-11T12:01:26;99725.33;;;39.14;33.40
72794;BME280;61018;26.334;50.194;2022-07-11T12:04:00;99722.90;;;38.87;33.99
72794;BME280;61018;26.334;50.194;2022-07-11T12:06:14;99721.78;;;39.24;33.63
72794;BME280;61018;26.334;50.194;2022-07-11T12:08:40;99721.90;;;39.23;33.30
72794;BME280;61018;26.334;50.194;2022-07-11T12:11:05;99720.77;;;38.91;34.91
72794;BME280;61018;26.334;50.194;2022-07-11T12:13:30;99722.25;;;39.40;34.47
72794;BME280;61018;26.334;50.194;2022-07-11T12:15:55;99722.26;;;39.14;34.44
72794;BME280;61018;26.334;50.194;2022-07-11T12:18:22;99722.70;;;39.04;34.49
72794;BME280;61018;26.334;50.194;2022-07-11T12:20:47;99723.18;;;38.79;34.72
72794;BME280;61018;26.334;50.194;2022-07-11T12:23:16;99725.22;;;39.08;34.91
72794;BME280;61018;26.334;50.194;2022-07-11T12:25:39;99724.92;;;39.42;33.60
72794;BME280;61018;26.334;50.194;2022-07-11T12:28:04;99721.67;;;39.62;34.31
72794;BME280;61018;26.334;50.194;2022-07-11T12:30:30;99720.19;;;38.12;36.57
72794;BME280;61018;26.334;50.194;2022-07-11T12:33:05;99717.64;;;38.32;36.24
72794;BME280;61018;26.334;50.194;2022-07-11T12:35:19;99719.42;;;37.58;37.07
72794;BME280;61018;26.334;50.194;2022-07-11T12:37:45;99716.70;;;38.42;35.10
72794;BME280;61018;26.334;50.194;2022-07-11T12:40:11;99716.03;;;38.77;35.47
72794;BME280;61018;26.334;50.194;2022-07-11T12:45:04;99716.71;;;38.85;35.74
72794;BME280;61018;26.334;50.194;2022-07-11T12:47:29;99717.12;;;38.92;35.98
72794;BME280;61018;26.334;50.194;2022-07-11T12:49:53;99718.15;;;38.77;36.25
72794;BME280;61018;26.334;50.194;2022-07-11T12:52:18;99717.78;;;38.17;37.27
72794;BME280;61018;26.334;50.194;2022-07-11T12:57:15;99720.88;;;38.08;37.78
72794;BME280;61018;26.334;50.194;2022-07-11T12:59:44;99723.54;;;37.85;37.86
72794;BME280;61018;26.334;50.194;2022-07-11T13:02:01;99718.88;;;38.83;36.23
72794;BME280;61018;26.334;50.194;2022-07-11T13:04:35;99719.33;;;38.73;36.50
72794;BME280;61018;26.334;50.194;2022-07-11T13:06:49;99718.95;;;38.25;37.48
72794;BME280;61018;26.334;50.194;2022-07-11T13:09:16;99712.75;;;37.93;37.25
72794;BME280;61018;26.334;50.194;2022-07-11T13:11:41;99717.05;;;37.41;37.29
72794;BME280;61018;26.334;50.194;2022-07-11T13:14:06;99717.56;;;37.50;37.82
72794;BME280;61018;26.334;50.194;2022-07-11T13:16:32;99718.62;;;38.40;36.71
72794;BME280;61018;26.334;50.194;2022-07-11T13:18:58;99723.47;;;36.92;39.18
72794;BME280;61018;26.334;50.194;2022-07-11T13:21:22;99720.08;;;38.87;36.98
72794;BME280;61018;26.334;50.194;2022-07-11T13:23:48;99723.38;;;38.33;37.58
72794;BME280;61018;26.334;50.194;2022-07-11T13:26:14;99715.73;;;38.35;36.94
72794;BME280;61018;26.334;50.194;2022-07-11T13:28:39;99717.94;;;37.14;38.38
72794;BME280;61018;26.334;50.194;2022-07-11T13:31:05;99715.15;;;38.27;37.47
72794;BME280;61018;26.334;50.194;2022-07-11T13:33:31;99714.22;;;38.47;36.68
72794;BME280;61018;26.334;50.194;2022-07-11T13:35:56;99714.86;;;38.40;36.96
72794;BME280;61018;26.334;50.194;2022-07-11T13:38:22;99712.97;;;38.50;37.06
72794;BME280;61018;26.334;50.194;2022-07-11T13:40:48;99712.70;;;38.66;37.52
72794;BME280;61018;26.334;50.194;2022-07-11T13:45:38;99716.97;;;38.12;37.47
72794;BME280;61018;26.334;50.194;2022-07-11T13:48:05;99720.30;;;37.68;38.01
72794;BME280;61018;26.334;50.194;2022-07-11T13:50:29;99715.93;;;37.45;38.86